sensor_id;sensor_type;location;lat;lon;timestamp;P1;durP1;ratioP1;P2;durP2;ratioP2
57856;SDS011;43683;48.650;9.290;2022-12-26T00:01:06;4.60;;;3.13;;
57856;SDS011;43683;48.650;9.290;2022-12-26T00:03:35;4.57;;;2.58;;
57856;SDS011;43683;48.650;9.290;2022-12-26T00:06:01;5.47;;;3.00;;
57856;SDS011;43683;48.650;9.290;2022-12-26T00:08:27;5.13;;;3.25;;
57856;SDS011;43683;48.650;9.290;2022-12-26T00:10:52;5.40;;;3.50;;
57856;SDS011;43683;48.650;9.290;2022-12-26T00:13:18;4.50;;;3.22;;
57856;SDS011;43683;48.650;9.290;2022-12-26T00:15:44;5.03;;;3.35;;
57856;SDS011;43683;48.650;9.290;2022-12-26T00:18:09;4.20;;;3.10;;
57856;SDS011;43683;48.650;9.290;2022-12-26T00:20:35;6.45;;;3.70;;
57856;SDS011;43683;48.650;9.290;2022-12-26T00:23:00;4.65;;;3.20;;
57856;SDS011;43683;48.650;9.290;2022-12-26T00:25:26;4.00;;;3.08;;
57856;SDS011;43683;48.650;9.290;2022-12-26T00:27:51;4.82;;;3.28;;
57856;SDS011;43683;48.650;9.290;2022-12-26T00:30:17;5.63;;;3.22;;
57856;SDS011;43683;48.650;9.290;2022-12-26T00:32:43;4.95;;;3.40;;
57856;SDS011;43683;48.650;9.290;2022-12-26T00:35:08;5.50;;;3.28;;
57856;SDS011;43683;48.650;9.290;2022-12-26T00:37:34;5.68;;;3.15;;
57856;SDS011;43683;48.650;9.290;2022-12-26T00:39:59;5.13;;;3.28;;
57856;SDS011;43683;48.650;9.290;2022-12-26T00:42:25;5.55;;;3.53;;
57856;SDS011;43683;48.650;9.290;2022-12-26T00:44:50;4.72;;;3.05;;
57856;SDS011;43683;48.650;9.290;2022-12-26T00:47:16;4.50;;;3.22;;
57856;SDS011;43683;48.650;9.290;2022-12-26T00:49:41;3.97;;;2.97;;
57856;SDS011;43683;48.650;9.290;2022-12-26T00:52:07;4.47;;;3.33;;
57856;SDS011;43683;48.650;9.290;2022-12-26T00:54:32;5.43;;;2.80;;
57856;SDS011;43683;48.650;9.290;2022-12-26T00:56:58;4.82;;;2.72;;
57856;SDS011;43683;48.650;9.290;2022-12-26T00:59:23;5.72;;;3.38;;
57856;SDS011;43683;48.650;9.290;2022-12-26T01:01:49;4.10;;;2.95;;
57856;SDS011;43683;48.650;9.290;2022-12-26T01:04:14;5.68;;;2.90;;
57856;SDS011;43683;48.650;9.290;2022-12-26T01:06:40;3.63;;;2.78;;
57856;SDS011;43683;48.650;9.290;2022-12-26T01:09:05;4.57;;;2.85;;
57856;SDS011;43683;48.650;9.290;2022-12-26T01:11:31;5.65;;;3.13;;
57856;SDS011;43683;48.650;9.290;2022-12-26T01:14:06;5.85;;;2.92;;
57856;SDS011;43683;48.650;9.290;2022-12-26T01:16:42;3.38;;;2.65;;
57856;SDS011;43683;48.650;9.290;2022-12-26T01:19:10;3.50;;;2.83;;
57856;SDS011;43683;48.650;9.290;2022-12-26T01:21:36;4.72;;;3.30;;
57856;SDS011;43683;48.650;9.290;2022-12-26T01:24:02;5.25;;;3.20;;
57856;SDS011;43683;48.650;9.290;2022-12-26T01:26:28;3.67;;;2.80;;
57856;SDS011;43683;48.650;9.290;2022-12-26T01:28:54;3.67;;;2.72;;
57856;SDS011;43683;48.650;9.290;2022-12-26T01:31:20;4.10;;;2.70;;
57856;SDS011;43683;48.650;9.290;2022-12-26T01:33:46;3.30;;;2.65;;
57856;SDS011;43683;48.650;9.290;2022-12-26T01:36:12;3.20;;;2.35;;
57856;SDS011;43683;48.650;9.290;2022-12-26T01:38:38;3.95;;;2.65;;
57856;SDS011;43683;48.650;9.290;2022-12-26T01:41:03;5.20;;;3.30;;
57856;SDS011;43683;48.650;9.290;2022-12-26T01:43:46;3.47;;;2.60;;
57856;SDS011;43683;48.650;9.290;2022-12-26T01:46:21;4.07;;;2.47;;
57856;SDS011;43683;48.650;9.290;2022-12-26T01:48:51;4.63;;;2.55;;
57856;SDS011;43683;48.650;9.290;2022-12-26T01:51:18;4.45;;;2.53;;
57856;SDS011;43683;48.650;9.290;2022-12-26T01:53:48;2.88;;;2.60;;
57856;SDS011;43683;48.650;9.290;2022-12-26T01:56:19;4.05;;;2.90;;
57856;SDS011;43683;48.650;9.290;2022-12-26T01:58:49;4.53;;;2.85;;
57856;SDS011;43683;48.650;9.290;2022-12-26T02:01:20;4.35;;;2.83;;
57856;SDS011;43683;48.650;9.290;2022-12-26T02:03:49;4.22;;;2.70;;
57856;SDS011;43683;48.650;9.290;2022-12-26T02:06:34;5.20;;;2.50;;
57856;SDS011;43683;48.650;9.290;2022-12-26T02:08:59;3.83;;;2.75;;
57856;SDS011;43683;48.650;9.290;2022-12-26T02:11:26;3.70;;;2.65;;
57856;SDS011;43683;48.650;9.290;2022-12-26T02:13:56;4.32;;;2.70;;
57856;SDS011;43683;48.650;9.290;2022-12-26T02:16:22;4.65;;;2.75;;
57856;SDS011;43683;48.650;9.290;2022-12-26T02:18:49;4.15;;;3.03;;
57856;SDS011;43683;48.650;9.290;2022-12-26T02:21:24;4.63;;;3.22;;
57856;SDS011;43683;48.650;9.290;2022-12-26T02:29:16;4.45;;;2.65;;
57856;SDS011;43683;48.650;9.290;2022-12-26T02:37:28;3.87;;;3.00;;
57856;SDS011;43683;48.650;9.290;2022-12-26T02:43:03;5.82;;;2.97;;
57856;SDS011;43683;48.650;9.290;2022-12-26T02:52:05;3.88;;;2.60;;
57856;SDS011;43683;48.650;9.290;2022-12-26T02:55:31;4.60;;;2.83;;
57856;SDS011;43683;48.650;9.290;2022-12-26T02:58:13;3.38;;;2.42;;
57856;SDS011;43683;48.650;9.290;2022-12-26T03:01:03;4.10;;;2.60;;
57856;SDS011;43683;48.650;9.290;2022-12-26T03:03:53;4.07;;;2.67;;
57856;SDS011;43683;48.650;9.290;2022-12-26T03:06:50;4.10;;;2.88;;
57856;SDS011;43683;48.650;9.290;2022-12-26T03:09:38;4.80;;;2.83;;
57856;SDS011;43683;48.650;9.290;2022-12-26T03:12:27;4.20;;;3.28;;
57856;SDS011;43683;48.650;9.290;2022-12-26T03:15:24;4.15;;;2.78;;
57856;SDS011;43683;48.650;9.290;2022-12-26T03:17:54;3.72;;;2.42;;
57856;SDS011;43683;48.650;9.290;2022-12-26T03:20:23;4.82;;;2.70;;
57856;SDS011;43683;48.650;9.290;2022-12-26T03:22:56;3.72;;;2.85;;
57856;SDS011;43683;48.650;9.290;2022-12-26T03:28:37;5.47;;;3.00;;
57856;SDS011;43683;48.650;9.290;2022-12-26T03:31:06;4.50;;;3.05;;
57856;SDS011;43683;48.650;9.290;2022-12-26T03:33:35;4.75;;;2.95;;
57856;SDS011;43683;48.650;9.290;2022-12-26T03:36:28;4.45;;;2.75;;
57856;SDS011;43683;48.650;9.290;2022-12-26T03:39:25;4.13;;;2.53;;
57856;SDS011;43683;48.650;9.290;2022-12-26T03:45:25;4.70;;;2.60;;
57856;SDS011;43683;48.650;9.290;2022-12-26T03:48:20;4.72;;;2.45;;
57856;SDS011;43683;48.650;9.290;2022-12-26T03:51:21;6.60;;;2.97;;
57856;SDS011;43683;48.650;9.290;2022-12-26T03:54:20;4.78;;;2.50;;
57856;SDS011;43683;48.650;9.290;2022-12-26T03:57:16;4.47;;;2.95;;
57856;SDS011;43683;48.650;9.290;2022-12-26T04:00:07;3.63;;;2.85;;
57856;SDS011;43683;48.650;9.290;2022-12-26T04:02:54;3.38;;;2.67;;
57856;SDS011;43683;48.650;9.290;2022-12-26T04:05:43;3.47;;;2.53;;
57856;SDS011;43683;48.650;9.290;2022-12-26T04:08:33;4.22;;;2.55;;
57856;SDS011;43683;48.650;9.290;2022-12-26T04:11:30;4.43;;;2.70;;
57856;SDS011;43683;48.650;9.290;2022-12-26T04:14:20;4.40;;;2.67;;
57856;SDS011;43683;48.650;9.290;2022-12-26T04:17:16;4.00;;;2.35;;
57856;SDS011;43683;48.650;9.290;2022-12-26T04:20:26;4.90;;;2.42;;
57856;SDS011;43683;48.650;9.290;2022-12-26T04:23:12;3.55;;;2.38;;
57856;SDS011;43683;48.650;9.290;2022-12-26T04:26:16;4.25;;;2.38;;
57856;SDS011;43683;48.650;9.290;2022-12-26T04:29:05;3.65;;;2.40;;
57856;SDS011;43683;48.650;9.290;2022-12-26T04:31:52;3.42;;;2.50;;
57856;SDS011;43683;48.650;9.290;2022-12-26T04:34:46;4.65;;;2.45;;
57856;SDS011;43683;48.650;9.290;2022-12-26T04:37:37;4.28;;;2.50;;
57856;SDS011;43683;48.650;9.290;2022-12-26T04:40:26;3.17;;;2.20;;
57856;SDS011;43683;48.650;9.290;2022-12-26T04:43:14;3.88;;;2.40;;
57856;SDS011;43683;48.650;9.290;2022-12-26T04:45:59;4.82;;;2.60;;
57856;SDS011;43683;48.650;9.290;2022-12-26T04:48:26;5.03;;;2.83;;
57856;SDS011;43683;48.650;9.290;2022-12-26T04:51:10;3.45;;;2.63;;
57856;SDS011;43683;48.650;9.290;2022-12-26T04:53:35;6.03;;;2.50;;
57856;SDS011;43683;48.650;9.290;2022-12-26T04:56:01;5.20;;;3.00;;
57856;SDS011;43683;48.650;9.290;2022-12-26T04:58:26;4.07;;;2.55;;
57856;SDS011;43683;48.650;9.290;2022-12-26T05:00:52;3.70;;;2.30;;
57856;SDS011;43683;48.650;9.290;2022-12-26T05:03:37;5.20;;;2.55;;
57856;SDS011;43683;48.650;9.290;2022-12-26T05:06:21;2.55;;;2.10;;
57856;SDS011;43683;48.650;9.290;2022-12-26T05:09:06;3.17;;;2.00;;
57856;SDS011;43683;48.650;9.290;2022-12-26T05:11:53;4.07;;;2.13;;
57856;SDS011;43683;48.650;9.290;2022-12-26T05:14:18;5.00;;;2.30;;
57856;SDS011;43683;48.650;9.290;2022-12-26T05:16:44;4.93;;;2.65;;
57856;SDS011;43683;48.650;9.290;2022-12-26T05:19:28;5.13;;;2.33;;
57856;SDS011;43683;48.650;9.290;2022-12-26T05:22:12;4.03;;;2.63;;
57856;SDS011;43683;48.650;9.290;2022-12-26T05:24:56;5.18;;;2.30;;
57856;SDS011;43683;48.650;9.290;2022-12-26T05:27:41;5.28;;;2.70;;
57856;SDS011;43683;48.650;9.290;2022-12-26T05:30:27;4.15;;;2.55;;
57856;SDS011;43683;48.650;9.290;2022-12-26T05:32:53;2.60;;;2.15;;
57856;SDS011;43683;48.650;9.290;2022-12-26T05:35:37;2.85;;;2.42;;
57856;SDS011;43683;48.650;9.290;2022-12-26T05:38:03;4.75;;;2.70;;
57856;SDS011;43683;48.650;9.290;2022-12-26T05:40:29;3.50;;;2.42;;
57856;SDS011;43683;48.650;9.290;2022-12-26T05:42:55;4.97;;;2.72;;
57856;SDS011;43683;48.650;9.290;2022-12-26T05:45:20;4.38;;;2.85;;
57856;SDS011;43683;48.650;9.290;2022-12-26T05:47:46;2.70;;;2.40;;
57856;SDS011;43683;48.650;9.290;2022-12-26T05:50:12;3.78;;;2.75;;
57856;SDS011;43683;48.650;9.290;2022-12-26T05:52:37;3.22;;;2.65;;
57856;SDS011;43683;48.650;9.290;2022-12-26T05:55:03;3.53;;;2.15;;
57856;SDS011;43683;48.650;9.290;2022-12-26T05:57:29;3.15;;;2.70;;
57856;SDS011;43683;48.650;9.290;2022-12-26T05:59:54;4.47;;;2.63;;
57856;SDS011;43683;48.650;9.290;2022-12-26T06:02:20;4.97;;;2.70;;
57856;SDS011;43683;48.650;9.290;2022-12-26T06:04:45;3.90;;;2.72;;
57856;SDS011;43683;48.650;9.290;2022-12-26T06:07:10;4.25;;;2.65;;
57856;SDS011;43683;48.650;9.290;2022-12-26T06:09:36;4.97;;;2.83;;
57856;SDS011;43683;48.650;9.290;2022-12-26T06:12:02;4.10;;;2.45;;
57856;SDS011;43683;48.650;9.290;2022-12-26T06:14:27;4.30;;;2.20;;
57856;SDS011;43683;48.650;9.290;2022-12-26T06:16:53;3.75;;;2.65;;
57856;SDS011;43683;48.650;9.290;2022-12-26T06:19:18;5.45;;;2.90;;
57856;SDS011;43683;48.650;9.290;2022-12-26T06:21:44;4.43;;;2.50;;
57856;SDS011;43683;48.650;9.290;2022-12-26T06:24:09;5.63;;;2.60;;
57856;SDS011;43683;48.650;9.290;2022-12-26T06:26:35;5.38;;;2.85;;
57856;SDS011;43683;48.650;9.290;2022-12-26T06:29:01;4.88;;;2.55;;
57856;SDS011;43683;48.650;9.290;2022-12-26T06:31:27;4.28;;;2.50;;
57856;SDS011;43683;48.650;9.290;2022-12-26T06:33:56;3.80;;;2.42;;
57856;SDS011;43683;48.650;9.290;2022-12-26T06:36:23;3.15;;;2.70;;
57856;SDS011;43683;48.650;9.290;2022-12-26T06:38:49;5.88;;;2.92;;
57856;SDS011;43683;48.650;9.290;2022-12-26T06:41:17;4.15;;;2.47;;
57856;SDS011;43683;48.650;9.290;2022-12-26T06:43:44;4.30;;;2.22;;
57856;SDS011;43683;48.650;9.290;2022-12-26T06:46:14;5.03;;;2.60;;
57856;SDS011;43683;48.650;9.290;2022-12-26T06:48:41;4.18;;;2.90;;
57856;SDS011;43683;48.650;9.290;2022-12-26T06:51:14;5.15;;;2.80;;
57856;SDS011;43683;48.650;9.290;2022-12-26T06:53:42;4.38;;;2.75;;
57856;SDS011;43683;48.650;9.290;2022-12-26T06:56:08;4.35;;;2.72;;
57856;SDS011;43683;48.650;9.290;2022-12-26T06:58:39;3.88;;;2.50;;
57856;SDS011;43683;48.650;9.290;2022-12-26T07:01:06;4.88;;;2.70;;
57856;SDS011;43683;48.650;9.290;2022-12-26T07:03:36;4.00;;;2.42;;
57856;SDS011;43683;48.650;9.290;2022-12-26T07:06:06;3.10;;;2.58;;
57856;SDS011;43683;48.650;9.290;2022-12-26T07:08:51;3.30;;;2.30;;
57856;SDS011;43683;48.650;9.290;2022-12-26T07:11:22;3.15;;;2.35;;
57856;SDS011;43683;48.650;9.290;2022-12-26T07:13:49;4.32;;;3.33;;
57856;SDS011;43683;48.650;9.290;2022-12-26T07:16:16;3.38;;;2.20;;
57856;SDS011;43683;48.650;9.290;2022-12-26T07:18:41;5.18;;;2.25;;
57856;SDS011;43683;48.650;9.290;2022-12-26T07:21:08;4.05;;;2.40;;
57856;SDS011;43683;48.650;9.290;2022-12-26T07:23:35;4.00;;;2.50;;
57856;SDS011;43683;48.650;9.290;2022-12-26T07:26:01;4.10;;;2.58;;
57856;SDS011;43683;48.650;9.290;2022-12-26T07:28:27;5.00;;;2.90;;
57856;SDS011;43683;48.650;9.290;2022-12-26T07:30:53;5.13;;;2.70;;
57856;SDS011;43683;48.650;9.290;2022-12-26T07:33:19;3.22;;;2.40;;
57856;SDS011;43683;48.650;9.290;2022-12-26T07:35:45;3.67;;;2.38;;
57856;SDS011;43683;48.650;9.290;2022-12-26T07:38:11;4.07;;;2.75;;
57856;SDS011;43683;48.650;9.290;2022-12-26T07:40:37;3.25;;;2.60;;
57856;SDS011;43683;48.650;9.290;2022-12-26T07:43:02;4.40;;;2.72;;
57856;SDS011;43683;48.650;9.290;2022-12-26T07:45:28;4.47;;;2.80;;
57856;SDS011;43683;48.650;9.290;2022-12-26T07:47:57;3.25;;;2.58;;
57856;SDS011;43683;48.650;9.290;2022-12-26T07:50:23;4.00;;;2.40;;
57856;SDS011;43683;48.650;9.290;2022-12-26T07:52:50;4.70;;;2.30;;
57856;SDS011;43683;48.650;9.290;2022-12-26T07:55:16;3.15;;;2.40;;
57856;SDS011;43683;48.650;9.290;2022-12-26T07:57:42;5.68;;;2.60;;
57856;SDS011;43683;48.650;9.290;2022-12-26T08:00:07;3.90;;;2.38;;
57856;SDS011;43683;48.650;9.290;2022-12-26T08:02:33;5.22;;;3.00;;
57856;SDS011;43683;48.650;9.290;2022-12-26T08:04:59;4.00;;;2.22;;
57856;SDS011;43683;48.650;9.290;2022-12-26T08:07:25;5.97;;;2.70;;
57856;SDS011;43683;48.650;9.290;2022-12-26T08:09:50;4.68;;;2.30;;
57856;SDS011;43683;48.650;9.290;2022-12-26T08:12:16;6.50;;;3.38;;
57856;SDS011;43683;48.650;9.290;2022-12-26T08:14:45;5.55;;;2.90;;
57856;SDS011;43683;48.650;9.290;2022-12-26T08:17:11;4.63;;;3.20;;
57856;SDS011;43683;48.650;9.290;2022-12-26T08:19:36;10.35;;;6.05;;
57856;SDS011;43683;48.650;9.290;2022-12-26T08:22:02;4.25;;;2.92;;
57856;SDS011;43683;48.650;9.290;2022-12-26T08:24:27;22.95;;;13.45;;
57856;SDS011;43683;48.650;9.290;2022-12-26T08:26:53;22.40;;;10.98;;
57856;SDS011;43683;48.650;9.290;2022-12-26T08:29:18;9.15;;;5.60;;
57856;SDS011;43683;48.650;9.290;2022-12-26T08:31:44;6.35;;;3.67;;
57856;SDS011;43683;48.650;9.290;2022-12-26T08:34:09;7.93;;;3.50;;
57856;SDS011;43683;48.650;9.290;2022-12-26T08:36:35;13.70;;;3.65;;
57856;SDS011;43683;48.650;9.290;2022-12-26T08:39:02;5.65;;;2.97;;
57856;SDS011;43683;48.650;9.290;2022-12-26T08:41:27;6.28;;;3.45;;
57856;SDS011;43683;48.650;9.290;2022-12-26T08:43:53;3.67;;;2.80;;
57856;SDS011;43683;48.650;9.290;2022-12-26T08:46:19;7.05;;;3.30;;
57856;SDS011;43683;48.650;9.290;2022-12-26T08:48:45;13.68;;;7.57;;
57856;SDS011;43683;48.650;9.290;2022-12-26T08:51:13;9.25;;;5.28;;
57856;SDS011;43683;48.650;9.290;2022-12-26T08:53:40;8.38;;;4.50;;
57856;SDS011;43683;48.650;9.290;2022-12-26T08:56:07;8.35;;;3.90;;
57856;SDS011;43683;48.650;9.290;2022-12-26T08:58:35;5.78;;;4.15;;
57856;SDS011;43683;48.650;9.290;2022-12-26T09:01:11;5.40;;;3.60;;
57856;SDS011;43683;48.650;9.290;2022-12-26T09:03:38;6.60;;;4.00;;
57856;SDS011;43683;48.650;9.290;2022-12-26T09:06:05;5.63;;;3.22;;
57856;SDS011;43683;48.650;9.290;2022-12-26T09:08:31;6.17;;;3.80;;
57856;SDS011;43683;48.650;9.290;2022-12-26T09:11:04;7.55;;;3.50;;
57856;SDS011;43683;48.650;9.290;2022-12-26T09:13:31;5.03;;;3.28;;
57856;SDS011;43683;48.650;9.290;2022-12-26T09:16:20;5.07;;;3.47;;
57856;SDS011;43683;48.650;9.290;2022-12-26T09:18:50;5.13;;;3.38;;
57856;SDS011;43683;48.650;9.290;2022-12-26T09:21:18;8.90;;;4.03;;
57856;SDS011;43683;48.650;9.290;2022-12-26T09:23:44;5.15;;;3.05;;
57856;SDS011;43683;48.650;9.290;2022-12-26T09:26:11;6.78;;;3.40;;
57856;SDS011;43683;48.650;9.290;2022-12-26T09:28:38;8.15;;;3.83;;
57856;SDS011;43683;48.650;9.290;2022-12-26T09:31:05;5.10;;;3.30;;
57856;SDS011;43683;48.650;9.290;2022-12-26T09:33:34;5.25;;;3.50;;
57856;SDS011;43683;48.650;9.290;2022-12-26T09:36:06;7.47;;;3.67;;
57856;SDS011;43683;48.650;9.290;2022-12-26T09:38:37;6.05;;;3.72;;
57856;SDS011;43683;48.650;9.290;2022-12-26T09:43:52;6.30;;;4.20;;
57856;SDS011;43683;48.650;9.290;2022-12-26T09:46:39;6.65;;;3.92;;
57856;SDS011;43683;48.650;9.290;2022-12-26T09:49:19;6.63;;;3.30;;
57856;SDS011;43683;48.650;9.290;2022-12-26T09:51:48;5.90;;;3.40;;
57856;SDS011;43683;48.650;9.290;2022-12-26T09:54:29;8.32;;;4.60;;
57856;SDS011;43683;48.650;9.290;2022-12-26T09:57:01;7.32;;;4.20;;
57856;SDS011;43683;48.650;9.290;2022-12-26T09:59:31;9.07;;;4.80;;
57856;SDS011;43683;48.650;9.290;2022-12-26T10:02:11;7.20;;;4.22;;
57856;SDS011;43683;48.650;9.290;2022-12-26T10:04:42;6.90;;;4.20;;
57856;SDS011;43683;48.650;9.290;2022-12-26T10:07:12;5.55;;;3.60;;
57856;SDS011;43683;48.650;9.290;2022-12-26T10:09:50;6.43;;;4.18;;
57856;SDS011;43683;48.650;9.290;2022-12-26T10:23:43;6.95;;;3.88;;
57856;SDS011;43683;48.650;9.290;2022-12-26T10:26:17;5.90;;;3.72;;
57856;SDS011;43683;48.650;9.290;2022-12-26T10:28:52;5.57;;;3.25;;
57856;SDS011;43683;48.650;9.290;2022-12-26T10:39:56;10.15;;;4.75;;
57856;SDS011;43683;48.650;9.290;2022-12-26T10:42:43;5.32;;;3.80;;
57856;SDS011;43683;48.650;9.290;2022-12-26T10:45:12;5.43;;;3.00;;
57856;SDS011;43683;48.650;9.290;2022-12-26T10:47:41;6.78;;;3.55;;
57856;SDS011;43683;48.650;9.290;2022-12-26T10:50:14;6.25;;;3.70;;
57856;SDS011;43683;48.650;9.290;2022-12-26T10:52:44;6.78;;;3.45;;
57856;SDS011;43683;48.650;9.290;2022-12-26T10:55:14;6.22;;;3.55;;
57856;SDS011;43683;48.650;9.290;2022-12-26T10:57:43;5.45;;;3.60;;
57856;SDS011;43683;48.650;9.290;2022-12-26T11:00:21;8.32;;;3.58;;
57856;SDS011;43683;48.650;9.290;2022-12-26T11:05:38;6.10;;;3.58;;
57856;SDS011;43683;48.650;9.290;2022-12-26T11:13:45;7.65;;;3.70;;
57856;SDS011;43683;48.650;9.290;2022-12-26T11:16:30;7.80;;;3.58;;
57856;SDS011;43683;48.650;9.290;2022-12-26T11:19:02;7.18;;;4.13;;
57856;SDS011;43683;48.650;9.290;2022-12-26T11:21:29;6.53;;;3.90;;
57856;SDS011;43683;48.650;9.290;2022-12-26T11:26:30;7.93;;;3.53;;
57856;SDS011;43683;48.650;9.290;2022-12-26T11:31:35;5.38;;;2.92;;
57856;SDS011;43683;48.650;9.290;2022-12-26T11:34:06;5.20;;;3.60;;
57856;SDS011;43683;48.650;9.290;2022-12-26T11:36:33;5.57;;;3.33;;
57856;SDS011;43683;48.650;9.290;2022-12-26T11:39:07;6.13;;;3.30;;
57856;SDS011;43683;48.650;9.290;2022-12-26T11:41:47;6.45;;;3.03;;
57856;SDS011;43683;48.650;9.290;2022-12-26T11:46:40;6.90;;;4.00;;
57856;SDS011;43683;48.650;9.290;2022-12-26T11:51:44;6.57;;;3.60;;
57856;SDS011;43683;48.650;9.290;2022-12-26T11:54:19;5.85;;;3.67;;
57856;SDS011;43683;48.650;9.290;2022-12-26T11:56:58;6.82;;;3.80;;
57856;SDS011;43683;48.650;9.290;2022-12-26T11:59:45;6.93;;;3.38;;
57856;SDS011;43683;48.650;9.290;2022-12-26T12:02:21;8.18;;;4.10;;
57856;SDS011;43683;48.650;9.290;2022-12-26T12:04:51;5.78;;;3.70;;
57856;SDS011;43683;48.650;9.290;2022-12-26T12:15:32;5.25;;;3.13;;
57856;SDS011;43683;48.650;9.290;2022-12-26T12:21:06;5.18;;;3.65;;
57856;SDS011;43683;48.650;9.290;2022-12-26T12:29:33;4.30;;;3.13;;
57856;SDS011;43683;48.650;9.290;2022-12-26T12:37:41;3.95;;;2.08;;
57856;SDS011;43683;48.650;9.290;2022-12-26T12:42:59;3.70;;;1.95;;
57856;SDS011;43683;48.650;9.290;2022-12-26T12:45:28;3.05;;;1.83;;
57856;SDS011;43683;48.650;9.290;2022-12-26T12:48:21;1.75;;;1.65;;
57856;SDS011;43683;48.650;9.290;2022-12-26T12:53:37;4.07;;;2.30;;
57856;SDS011;43683;48.650;9.290;2022-12-26T12:56:30;1.67;;;1.58;;
57856;SDS011;43683;48.650;9.290;2022-12-26T12:59:24;1.70;;;1.50;;
57856;SDS011;43683;48.650;9.290;2022-12-26T13:01:54;1.50;;;1.40;;
57856;SDS011;43683;48.650;9.290;2022-12-26T13:04:34;3.13;;;1.50;;
57856;SDS011;43683;48.650;9.290;2022-12-26T13:07:20;1.65;;;1.30;;
57856;SDS011;43683;48.650;9.290;2022-12-26T13:09:55;2.20;;;1.70;;
57856;SDS011;43683;48.650;9.290;2022-12-26T13:12:25;3.15;;;2.00;;
57856;SDS011;43683;48.650;9.290;2022-12-26T13:14:56;2.95;;;1.50;;
57856;SDS011;43683;48.650;9.290;2022-12-26T13:17:51;2.70;;;1.40;;
57856;SDS011;43683;48.650;9.290;2022-12-26T13:23:21;1.90;;;1.63;;
57856;SDS011;43683;48.650;9.290;2022-12-26T13:26:15;3.90;;;2.50;;
57856;SDS011;43683;48.650;9.290;2022-12-26T13:31:34;2.17;;;1.70;;
57856;SDS011;43683;48.650;9.290;2022-12-26T13:34:01;1.58;;;1.40;;
57856;SDS011;43683;48.650;9.290;2022-12-26T13:36:36;1.92;;;1.30;;
57856;SDS011;43683;48.650;9.290;2022-12-26T13:44:39;1.30;;;1.20;;
57856;SDS011;43683;48.650;9.290;2022-12-26T13:47:05;2.40;;;1.55;;
57856;SDS011;43683;48.650;9.290;2022-12-26T13:53:03;1.98;;;1.10;;
57856;SDS011;43683;48.650;9.290;2022-12-26T13:55:40;1.30;;;1.20;;
57856;SDS011;43683;48.650;9.290;2022-12-26T13:58:13;1.27;;;1.17;;
57856;SDS011;43683;48.650;9.290;2022-12-26T14:07:00;2.25;;;1.30;;
57856;SDS011;43683;48.650;9.290;2022-12-26T14:10:04;1.48;;;1.35;;
57856;SDS011;43683;48.650;9.290;2022-12-26T14:18:08;2.47;;;1.27;;
57856;SDS011;43683;48.650;9.290;2022-12-26T14:25:57;1.73;;;1.30;;
57856;SDS011;43683;48.650;9.290;2022-12-26T14:28:28;1.30;;;1.20;;
57856;SDS011;43683;48.650;9.290;2022-12-26T14:31:22;1.40;;;1.30;;
57856;SDS011;43683;48.650;9.290;2022-12-26T14:34:09;1.88;;;1.20;;
57856;SDS011;43683;48.650;9.290;2022-12-26T14:36:48;1.83;;;1.15;;
57856;SDS011;43683;48.650;9.290;2022-12-26T14:42:18;1.67;;;1.58;;
57856;SDS011;43683;48.650;9.290;2022-12-26T14:45:09;1.60;;;1.50;;
57856;SDS011;43683;48.650;9.290;2022-12-26T14:47:46;1.83;;;1.60;;
57856;SDS011;43683;48.650;9.290;2022-12-26T14:58:44;1.77;;;1.45;;
57856;SDS011;43683;48.650;9.290;2022-12-26T15:11:37;3.03;;;1.88;;
57856;SDS011;43683;48.650;9.290;2022-12-26T15:22:36;1.25;;;1.15;;
57856;SDS011;43683;48.650;9.290;2022-12-26T15:36:19;1.90;;;1.67;;
57856;SDS011;43683;48.650;9.290;2022-12-26T15:41:46;1.27;;;1.17;;
57856;SDS011;43683;48.650;9.290;2022-12-26T16:00:37;2.50;;;1.48;;
57856;SDS011;43683;48.650;9.290;2022-12-26T16:03:23;1.80;;;1.50;;
57856;SDS011;43683;48.650;9.290;2022-12-26T16:06:16;1.60;;;1.40;;
57856;SDS011;43683;48.650;9.290;2022-12-26T16:11:47;1.88;;;1.50;;
57856;SDS011;43683;48.650;9.290;2022-12-26T16:14:30;1.42;;;1.33;;
57856;SDS011;43683;48.650;9.290;2022-12-26T16:19:38;2.20;;;1.50;;
57856;SDS011;43683;48.650;9.290;2022-12-26T16:22:05;2.35;;;1.42;;
57856;SDS011;43683;48.650;9.290;2022-12-26T16:27:21;1.40;;;1.30;;
57856;SDS011;43683;48.650;9.290;2022-12-26T16:29:50;2.30;;;1.50;;
57856;SDS011;43683;48.650;9.290;2022-12-26T16:32:20;1.98;;;1.63;;
57856;SDS011;43683;48.650;9.290;2022-12-26T16:34:48;1.27;;;1.17;;
57856;SDS011;43683;48.650;9.290;2022-12-26T16:37:18;2.30;;;1.75;;
57856;SDS011;43683;48.650;9.290;2022-12-26T16:40:33;2.72;;;1.60;;
57856;SDS011;43683;48.650;9.290;2022-12-26T16:42:35;2.17;;;1.58;;
57856;SDS011;43683;48.650;9.290;2022-12-26T16:45:01;2.63;;;1.67;;
57856;SDS011;43683;48.650;9.290;2022-12-26T16:47:29;2.38;;;1.67;;
57856;SDS011;43683;48.650;9.290;2022-12-26T16:49:55;2.78;;;1.92;;
57856;SDS011;43683;48.650;9.290;2022-12-26T16:52:34;2.90;;;2.00;;
57856;SDS011;43683;48.650;9.290;2022-12-26T16:57:55;2.00;;;1.80;;
57856;SDS011;43683;48.650;9.290;2022-12-26T17:00:23;3.00;;;1.70;;
57856;SDS011;43683;48.650;9.290;2022-12-26T17:02:51;2.17;;;1.60;;
57856;SDS011;43683;48.650;9.290;2022-12-26T17:05:21;2.22;;;1.77;;
57856;SDS011;43683;48.650;9.290;2022-12-26T17:07:48;2.90;;;1.98;;
57856;SDS011;43683;48.650;9.290;2022-12-26T17:12:45;1.63;;;1.52;;
57856;SDS011;43683;48.650;9.290;2022-12-26T17:15:17;2.42;;;1.85;;
57856;SDS011;43683;48.650;9.290;2022-12-26T17:17:44;1.98;;;1.50;;
57856;SDS011;43683;48.650;9.290;2022-12-26T17:22:46;2.40;;;1.98;;
57856;SDS011;43683;48.650;9.290;2022-12-26T17:25:28;2.97;;;2.20;;
57856;SDS011;43683;48.650;9.290;2022-12-26T17:28:28;6.68;;;3.92;;
57856;SDS011;43683;48.650;9.290;2022-12-26T17:30:47;5.00;;;2.90;;
57856;SDS011;43683;48.650;9.290;2022-12-26T17:33:21;9.30;;;4.60;;
57856;SDS011;43683;48.650;9.290;2022-12-26T17:36:10;3.60;;;2.50;;
57856;SDS011;43683;48.650;9.290;2022-12-26T17:38:38;3.03;;;2.25;;
57856;SDS011;43683;48.650;9.290;2022-12-26T17:41:04;3.70;;;1.98;;
57856;SDS011;43683;48.650;9.290;2022-12-26T17:43:34;3.30;;;2.50;;
57856;SDS011;43683;48.650;9.290;2022-12-26T17:46:01;5.57;;;3.58;;
57856;SDS011;43683;48.650;9.290;2022-12-26T17:48:27;7.28;;;4.10;;
57856;SDS011;43683;48.650;9.290;2022-12-26T17:50:54;7.63;;;4.28;;
57856;SDS011;43683;48.650;9.290;2022-12-26T17:53:30;6.95;;;4.28;;
57856;SDS011;43683;48.650;9.290;2022-12-26T17:56:01;3.40;;;2.15;;
57856;SDS011;43683;48.650;9.290;2022-12-26T17:58:32;3.33;;;2.17;;
57856;SDS011;43683;48.650;9.290;2022-12-26T18:00:58;1.95;;;1.77;;
57856;SDS011;43683;48.650;9.290;2022-12-26T18:03:24;4.30;;;2.38;;
57856;SDS011;43683;48.650;9.290;2022-12-26T18:05:51;3.28;;;2.28;;
57856;SDS011;43683;48.650;9.290;2022-12-26T18:08:36;6.32;;;3.60;;
57856;SDS011;43683;48.650;9.290;2022-12-26T18:11:05;6.32;;;2.80;;
57856;SDS011;43683;48.650;9.290;2022-12-26T18:13:33;3.47;;;2.20;;
57856;SDS011;43683;48.650;9.290;2022-12-26T18:15:59;1.92;;;1.80;;
57856;SDS011;43683;48.650;9.290;2022-12-26T18:18:36;5.70;;;2.92;;
57856;SDS011;43683;48.650;9.290;2022-12-26T18:21:03;3.70;;;2.30;;
57856;SDS011;43683;48.650;9.290;2022-12-26T18:23:30;4.00;;;1.63;;
57856;SDS011;43683;48.650;9.290;2022-12-26T18:25:58;2.17;;;1.83;;
57856;SDS011;43683;48.650;9.290;2022-12-26T18:28:25;3.10;;;1.92;;
57856;SDS011;43683;48.650;9.290;2022-12-26T18:30:51;2.25;;;1.70;;
57856;SDS011;43683;48.650;9.290;2022-12-26T18:33:17;1.77;;;1.48;;
57856;SDS011;43683;48.650;9.290;2022-12-26T18:35:43;1.15;;;1.13;;
57856;SDS011;43683;48.650;9.290;2022-12-26T18:38:11;1.35;;;1.27;;
57856;SDS011;43683;48.650;9.290;2022-12-26T18:40:40;1.95;;;1.80;;
57856;SDS011;43683;48.650;9.290;2022-12-26T18:43:08;1.52;;;1.42;;
57856;SDS011;43683;48.650;9.290;2022-12-26T18:45:34;2.50;;;1.70;;